Time;durP1;ratioP1;P1;durP2;ratioP2;P2;SDS_P1;SDS_P2;PMS_P1;PMS_P2;Temp;Humidity;BMP_temperature;BMP_pressure;BME280_temperature;BME280_humidity;BME280_pressure;Samples;Min_cycle;Max_cycle;Signal;HPM_P1;HPM_P2
2023/06/20 00:00:27;;;;;;;9.77;6.05;;;22.00;99.90;;;;;;5050640;28;20230;-68
2023/06/20 00:02:54;;;;;;;5.50;4.90;;;22.00;99.90;;;;;;5051084;28;20249;-67
2023/06/20 00:05:23;;;;;;;7.75;4.97;;;22.00;99.90;;;;;;5051393;28;20736;-67
2023/06/20 00:07:50;;;;;;;10.25;6.57;;;22.00;99.90;;;;;;5050760;28;20211;-77
2023/06/20 00:10:17;;;;;;;7.63;5.25;;;22.00;99.90;;;;;;5051098;28;20207;-67
2023/06/20 00:12:44;;;;;;;7.03;5.32;;;22.00;99.90;;;;;;5050258;28;20634;-67
2023/06/20 00:15:11;;;;;;;6.95;5.63;;;22.00;99.90;;;;;;5050667;28;20622;-67
2023/06/20 00:17:38;;;;;;;5.95;5.38;;;22.00;99.90;;;;;;5050768;28;20203;-67
2023/06/20 00:20:07;;;;;;;7.68;5.38;;;22.00;99.90;;;;;;5050635;28;20241;-67
2023/06/20 00:22:35;;;;;;;9.15;4.97;;;22.00;99.90;;;;;;5050593;28;20265;-78
2023/06/20 00:25:03;;;;;;;6.47;5.88;;;22.00;99.90;;;;;;5048533;28;20245;-69
2023/06/20 00:27:30;;;;;;;9.02;5.20;;;22.00;99.90;;;;;;5041797;28;20242;-67
2023/06/20 00:29:58;;;;;;;7.28;4.88;;;22.00;99.90;;;;;;5034572;28;20265;-71
2023/06/20 00:32:25;;;;;;;9.10;4.90;;;22.00;99.90;;;;;;5047633;28;20215;-75
2023/06/20 00:34:52;;;;;;;6.57;5.50;;;22.00;99.90;;;;;;5036973;28;20366;-78
2023/06/20 00:37:19;;;;;;;6.85;5.63;;;21.90;99.90;;;;;;5050074;28;20253;-76
2023/06/20 00:39:47;;;;;;;6.80;5.05;;;22.00;99.90;;;;;;5049946;28;20242;-67
2023/06/20 00:42:18;;;;;;;6.05;5.45;;;22.00;99.90;;;;;;5043983;28;20273;-75
2023/06/20 00:44:45;;;;;;;7.57;5.72;;;22.00;99.90;;;;;;5043514;28;20209;-72
2023/06/20 00:47:12;;;;;;;7.00;5.75;;;22.00;99.90;;;;;;5050342;28;20203;-67
2023/06/20 00:49:40;;;;;;;10.27;5.97;;;22.00;99.90;;;;;;5050038;28;20760;-77
2023/06/20 00:52:07;;;;;;;6.57;5.95;;;22.00;99.90;;;;;;5050253;28;20214;-67
2023/06/20 00:54:35;;;;;;;9.15;6.10;;;22.00;99.90;;;;;;5049959;28;20728;-67
2023/06/20 00:57:04;;;;;;;6.28;5.28;;;22.00;99.90;;;;;;5049873;28;20215;-77
2023/06/20 00:59:31;;;;;;;6.25;5.65;;;21.90;99.90;;;;;;5041724;28;20710;-76
2023/06/20 01:01:58;;;;;;;5.95;5.38;;;21.90;99.90;;;;;;5044436;28;20682;-78
2023/06/20 01:04:26;;;;;;;7.60;6.85;;;21.90;99.90;;;;;;5050470;28;20202;-72
2023/06/20 01:07:00;;;;;;;7.82;6.07;;;22.00;99.90;;;;;;5050600;28;20288;-71
2023/06/20 01:09:38;;;;;;;8.27;5.57;;;22.00;99.90;;;;;;5049760;28;20202;-71
2023/06/20 01:12:14;;;;;;;10.43;6.63;;;22.00;99.90;;;;;;5050162;28;20214;-74
2023/06/20 01:14:51;;;;;;;14.35;6.07;;;22.00;99.90;;;;;;5049854;28;20202;-69
2023/06/20 01:17:24;;;;;;;6.28;5.47;;;22.00;99.90;;;;;;5049902;28;20249;-70
2023/06/20 01:20:06;;;;;;;7.82;5.80;;;22.00;99.90;;;;;;5050485;28;20222;-70
2023/06/20 01:22:57;;;;;;;8.40;6.03;;;22.00;99.90;;;;;;5049601;28;20690;-70
2023/06/20 01:25:31;;;;;;;10.68;6.50;;;22.10;99.90;;;;;;5049955;28;20217;-69
2023/06/20 01:28:09;;;;;;;12.27;6.80;;;22.10;99.90;;;;;;5049976;28;20225;-75
2023/06/20 01:30:42;;;;;;;9.00;5.63;;;22.10;99.90;;;;;;5049826;28;20648;-69
2023/06/20 01:33:11;;;;;;;12.98;5.82;;;22.10;99.90;;;;;;5045972;28;20208;-69
2023/06/20 01:35:39;;;;;;;7.43;6.00;;;22.10;99.90;;;;;;5040224;28;20211;-74
2023/06/20 01:38:11;;;;;;;6.75;6.03;;;22.10;99.90;;;;;;5049688;28;20211;-70
2023/06/20 01:40:39;;;;;;;7.28;6.22;;;22.10;99.90;;;;;;5049251;28;20651;-71
2023/06/20 01:43:07;;;;;;;10.60;6.63;;;22.10;99.90;;;;;;5049640;28;20211;-69
2023/06/20 01:45:38;;;;;;;8.90;6.75;;;22.10;99.90;;;;;;5049756;28;20572;-69
2023/06/20 01:48:07;;;;;;;7.43;6.18;;;22.10;99.90;;;;;;5052326;28;20647;-69
2023/06/20 01:50:35;;;;;;;11.30;6.40;;;22.00;99.90;;;;;;5053147;28;20211;-69
2023/06/20 01:53:03;;;;;;;7.78;5.63;;;22.00;99.90;;;;;;5053522;28;20662;-69
2023/06/20 01:55:35;;;;;;;8.30;5.53;;;22.00;99.90;;;;;;5053363;28;20199;-74
2023/06/20 01:58:03;;;;;;;6.15;5.30;;;21.90;99.90;;;;;;5053596;28;20577;-73
2023/06/20 02:00:32;;;;;;;7.85;6.07;;;21.90;99.90;;;;;;5052970;28;20234;-72
2023/06/20 02:03:00;;;;;;;8.65;6.32;;;22.00;99.90;;;;;;5053594;28;20289;-74
2023/06/20 02:05:31;;;;;;;8.05;6.50;;;21.90;99.90;;;;;;5053343;28;20211;-69
2023/06/20 02:08:00;;;;;;;8.02;6.32;;;21.90;99.90;;;;;;5053200;28;20217;-73
2023/06/20 02:10:28;;;;;;;6.85;6.25;;;21.80;99.90;;;;;;5052954;28;20224;-69
2023/06/20 02:12:57;;;;;;;6.85;6.07;;;21.80;99.90;;;;;;5053501;28;20298;-69
2023/06/20 02:15:26;;;;;;;6.18;5.60;;;21.90;99.90;;;;;;5053381;28;20221;-73
2023/06/20 02:17:55;;;;;;;7.45;6.40;;;21.90;99.90;;;;;;5053512;28;20230;-69
2023/06/20 02:20:22;;;;;;;10.50;6.10;;;22.00;99.90;;;;;;5053120;28;20270;-75
2023/06/20 02:22:55;;;;;;;6.60;5.90;;;21.90;99.90;;;;;;5053227;28;20238;-69
2023/06/20 02:25:27;;;;;;;11.00;6.22;;;21.90;99.90;;;;;;5053492;28;20203;-70
2023/06/20 02:27:57;;;;;;;6.50;5.82;;;22.00;99.90;;;;;;5053133;28;20230;-69
2023/06/20 02:30:28;;;;;;;7.35;5.47;;;22.00;99.90;;;;;;5053117;28;20678;-74
2023/06/20 02:32:57;;;;;;;5.85;5.35;;;22.00;99.90;;;;;;5050640;28;20238;-69
2023/06/20 02:35:25;;;;;;;8.15;7.35;;;22.00;99.90;;;;;;5042032;28;20242;-71
2023/06/20 02:37:55;;;;;;;8.73;6.85;;;22.00;99.90;;;;;;5052803;28;20213;-68
2023/06/20 02:40:25;;;;;;;9.02;6.22;;;22.00;99.90;;;;;;5053100;28;20305;-70
2023/06/20 02:42:52;;;;;;;17.38;7.38;;;21.90;99.90;;;;;;5052922;28;20249;-68
2023/06/20 02:45:21;;;;;;;11.80;7.28;;;21.90;99.90;;;;;;5052924;28;20203;-74
2023/06/20 02:47:59;;;;;;;11.75;6.10;;;21.80;99.90;;;;;;5052521;28;20297;-75
2023/06/20 02:50:45;;;;;;;7.78;5.80;;;21.80;99.90;;;;;;5052020;28;20238;-69
2023/06/20 02:53:20;;;;;;;9.35;5.60;;;21.90;99.90;;;;;;5052090;28;20211;-69
2023/06/20 02:55:54;;;;;;;7.70;6.90;;;21.90;99.90;;;;;;5052257;28;20199;-69
2023/06/20 02:58:25;;;;;;;8.77;6.80;;;21.90;99.90;;;;;;5052322;28;20250;-69
2023/06/20 03:00:54;;;;;;;16.27;6.78;;;21.90;99.90;;;;;;5052595;28;20371;-72
2023/06/20 03:03:25;;;;;;;8.32;7.25;;;21.80;99.90;;;;;;5052547;28;20238;-69
2023/06/20 03:05:56;;;;;;;8.07;6.93;;;21.80;99.90;;;;;;5052599;28;20635;-69
2023/06/20 03:08:26;;;;;;;13.13;7.25;;;21.70;99.90;;;;;;5052765;28;20207;-69
2023/06/20 03:10:54;;;;;;;7.95;6.68;;;21.80;99.90;;;;;;5039370;28;20203;-69
2023/06/20 03:13:21;;;;;;;11.60;6.65;;;21.80;99.90;;;;;;5052637;28;20240;-70
2023/06/20 03:15:49;;;;;;;11.00;7.55;;;21.90;99.90;;;;;;5051609;28;20238;-69
2023/06/20 03:18:18;;;;;;;12.00;8.38;;;21.80;99.90;;;;;;5052105;28;20207;-69
2023/06/20 03:20:45;;;;;;;8.60;7.03;;;21.80;99.90;;;;;;5051209;28;20269;-73
2023/06/20 03:23:12;;;;;;;7.18;6.45;;;21.80;99.90;;;;;;5052120;28;20265;-69
2023/06/20 03:25:39;;;;;;;10.13;7.22;;;21.70;99.90;;;;;;5051328;28;20683;-70
2023/06/20 03:28:06;;;;;;;11.05;7.30;;;21.80;99.90;;;;;;5051844;28;20203;-79
2023/06/20 03:30:33;;;;;;;10.00;8.52;;;21.80;99.90;;;;;;5051311;28;20235;-69
2023/06/20 03:33:00;;;;;;;11.63;8.57;;;21.70;99.90;;;;;;5049044;28;20558;-79
2023/06/20 03:35:28;;;;;;;10.85;7.70;;;21.70;99.90;;;;;;5040418;28;20207;-79
2023/06/20 03:37:55;;;;;;;10.15;7.53;;;21.70;99.90;;;;;;5051687;28;20242;-69
2023/06/20 03:40:22;;;;;;;9.13;7.45;;;21.70;99.90;;;;;;5052010;28;20270;-72
2023/06/20 03:42:51;;;;;;;14.35;7.85;;;21.80;99.90;;;;;;5051602;28;20218;-77
2023/06/20 03:45:17;;;;;;;9.32;7.32;;;21.70;99.90;;;;;;5051460;28;20207;-68
2023/06/20 03:47:44;;;;;;;11.85;7.60;;;21.70;99.90;;;;;;5051056;28;20679;-69
2023/06/20 03:50:11;;;;;;;17.40;7.88;;;21.70;99.90;;;;;;5051071;28;20234;-77
2023/06/20 03:52:39;;;;;;;12.68;7.65;;;21.70;99.90;;;;;;5051054;28;20264;-75
2023/06/20 03:55:07;;;;;;;14.73;8.98;;;21.70;99.90;;;;;;5051288;28;20238;-79
2023/06/20 03:57:34;;;;;;;8.27;7.38;;;21.70;99.90;;;;;;5050987;28;20242;-68
2023/06/20 04:00:04;;;;;;;10.93;8.00;;;21.70;99.90;;;;;;5050977;28;20391;-75
2023/06/20 04:02:31;;;;;;;12.38;8.13;;;21.70;99.90;;;;;;5050869;28;20210;-71
2023/06/20 04:04:58;;;;;;;12.75;8.18;;;21.70;99.90;;;;;;5051039;28;20203;-70
2023/06/20 04:07:25;;;;;;;9.15;7.15;;;21.80;99.90;;;;;;5037489;28;20218;-73
2023/06/20 04:09:53;;;;;;;13.00;7.20;;;21.80;99.90;;;;;;5051177;28;20272;-71
2023/06/20 04:12:20;;;;;;;10.63;7.30;;;21.80;99.90;;;;;;5050585;28;20245;-69
2023/06/20 04:14:47;;;;;;;11.30;8.18;;;21.80;99.90;;;;;;5050411;28;20725;-70
2023/06/20 04:17:14;;;;;;;9.32;7.40;;;21.70;99.90;;;;;;5050953;28;20732;-70
2023/06/20 04:19:41;;;;;;;17.75;9.15;;;21.70;99.90;;;;;;5050381;28;20238;-70
2023/06/20 04:22:09;;;;;;;11.52;8.05;;;21.70;99.90;;;;;;5050705;28;20756;-71
2023/06/20 04:24:37;;;;;;;11.52;7.90;;;21.70;99.90;;;;;;5050551;28;20709;-69
2023/06/20 04:27:06;;;;;;;12.57;7.93;;;21.70;99.90;;;;;;5050491;28;20207;-70
2023/06/20 04:29:33;;;;;;;12.15;8.77;;;21.70;99.90;;;;;;5050410;28;20256;-69
2023/06/20 04:31:59;;;;;;;18.10;8.57;;;21.70;99.90;;;;;;5050851;28;20591;-69
2023/06/20 04:34:26;;;;;;;10.10;8.48;;;21.70;99.90;;;;;;5035609;28;20239;-72
2023/06/20 04:36:53;;;;;;;12.35;7.88;;;21.70;99.90;;;;;;5050954;28;20218;-69
2023/06/20 04:39:20;;;;;;;9.52;7.88;;;21.70;99.90;;;;;;5050682;28;20302;-70
2023/06/20 04:41:47;;;;;;;12.07;8.70;;;21.60;99.90;;;;;;5049913;28;20749;-71
2023/06/20 04:44:15;;;;;;;14.18;8.60;;;21.60;99.90;;;;;;5050787;28;20750;-71
2023/06/20 04:46:42;;;;;;;15.88;8.07;;;21.60;99.90;;;;;;5049857;28;20656;-72
2023/06/20 04:49:09;;;;;;;18.45;8.90;;;21.60;99.90;;;;;;5050535;28;20264;-70
2023/06/20 04:51:40;;;;;;;12.82;8.00;;;21.60;99.90;;;;;;5049798;28;20219;-72
2023/06/20 04:54:07;;;;;;;16.45;8.57;;;21.60;99.90;;;;;;5050440;28;20207;-70
2023/06/20 04:56:40;;;;;;;10.85;8.20;;;21.60;99.90;;;;;;5049463;28;20242;-69
2023/06/20 04:59:07;;;;;;;16.55;9.95;;;21.50;99.90;;;;;;5050305;28;20206;-72
2023/06/20 05:01:37;;;;;;;12.50;8.98;;;21.50;99.90;;;;;;5049640;28;20735;-71
2023/06/20 05:04:04;;;;;;;14.43;10.27;;;21.50;99.90;;;;;;5050166;28;20241;-71
2023/06/20 05:06:31;;;;;;;13.73;9.10;;;21.60;99.90;;;;;;5049923;28;20235;-74
2023/06/20 05:08:59;;;;;;;10.77;8.75;;;21.60;99.90;;;;;;5050204;28;20290;-72
2023/06/20 05:11:26;;;;;;;15.70;9.38;;;21.60;99.90;;;;;;5050347;28;20213;-69
2023/06/20 05:13:53;;;;;;;12.73;9.15;;;21.70;99.90;;;;;;5050530;28;20246;-69
2023/06/20 05:16:22;;;;;;;15.23;8.38;;;21.80;99.90;;;;;;5050419;28;20242;-69
2023/06/20 05:18:50;;;;;;;11.85;8.52;;;21.80;99.90;;;;;;5049819;28;20206;-68
2023/06/20 05:21:17;;;;;;;13.68;9.75;;;21.80;99.90;;;;;;5050008;28;20265;-69
2023/06/20 05:23:44;;;;;;;9.43;8.10;;;21.80;99.90;;;;;;5053450;28;20241;-77
2023/06/20 05:26:11;;;;;;;16.60;9.07;;;21.90;99.90;;;;;;5054494;28;20245;-78
2023/06/20 05:28:38;;;;;;;11.88;8.40;;;21.90;99.90;;;;;;5053806;28;20245;-69
2023/06/20 05:31:05;;;;;;;12.88;8.43;;;21.90;99.90;;;;;;5054041;28;20234;-69
2023/06/20 05:33:32;;;;;;;9.07;7.60;;;21.90;99.90;;;;;;5046472;28;20238;-68
2023/06/20 05:36:00;;;;;;;12.18;8.65;;;22.00;99.90;;;;;;5047252;28;20238;-69
2023/06/20 05:38:31;;;;;;;8.82;7.40;;;22.00;99.90;;;;;;5053579;28;20292;-68
2023/06/20 05:40:58;;;;;;;11.15;7.60;;;22.00;99.90;;;;;;5054031;28;20234;-79
2023/06/20 05:43:25;;;;;;;11.63;7.45;;;22.10;99.90;;;;;;5053650;28;20670;-73
2023/06/20 05:45:52;;;;;;;8.50;7.60;;;22.00;99.90;;;;;;5053954;28;20215;-69
2023/06/20 05:48:23;;;;;;;10.38;8.15;;;22.00;99.90;;;;;;5054057;28;20710;-69
2023/06/20 05:50:51;;;;;;;9.73;7.25;;;21.90;99.90;;;;;;5053703;28;20589;-76
2023/06/20 05:53:20;;;;;;;9.95;7.15;;;22.00;99.90;;;;;;5053696;28;20203;-71
2023/06/20 05:55:50;;;;;;;9.95;7.35;;;22.00;99.90;;;;;;5053430;28;20199;-68
2023/06/20 05:58:17;;;;;;;9.82;7.30;;;21.90;99.90;;;;;;5053910;28;20199;-68
2023/06/20 06:00:45;;;;;;;13.60;7.40;;;22.00;99.90;;;;;;5052893;28;20231;-72
2023/06/20 06:03:12;;;;;;;8.35;6.65;;;22.00;99.90;;;;;;5053463;28;20213;-78
2023/06/20 06:05:39;;;;;;;9.70;7.40;;;22.20;99.90;;;;;;5053176;28;20239;-75
2023/06/20 06:08:06;;;;;;;7.60;6.90;;;22.40;99.90;;;;;;5053520;28;20577;-77
2023/06/20 06:10:35;;;;;;;10.00;7.22;;;22.60;99.90;;;;;;5052865;28;20238;-69
2023/06/20 06:13:02;;;;;;;9.90;6.60;;;22.50;99.90;;;;;;5053347;28;20203;-74
2023/06/20 06:15:29;;;;;;;7.72;6.85;;;22.50;99.90;;;;;;5052369;28;20234;-68
2023/06/20 06:17:56;;;;;;;8.93;7.10;;;22.50;99.90;;;;;;5053530;28;20261;-74
2023/06/20 06:20:24;;;;;;;13.13;6.28;;;22.50;99.90;;;;;;5053138;28;20304;-69
2023/06/20 06:22:51;;;;;;;8.85;6.10;;;22.40;99.90;;;;;;5053446;28;20322;-68
2023/06/20 06:25:19;;;;;;;8.57;6.53;;;22.50;99.90;;;;;;5053035;28;20213;-69
2023/06/20 06:27:47;;;;;;;7.20;5.70;;;22.90;99.90;;;;;;5052360;28;20217;-78
2023/06/20 06:30:15;;;;;;;8.88;6.47;;;23.00;99.90;;;;;;5052804;28;20246;-77
2023/06/20 06:32:43;;;;;;;6.18;5.57;;;22.90;99.90;;;;;;5052488;28;20211;-73
2023/06/20 06:35:12;;;;;;;10.73;6.30;;;22.90;99.90;;;;;;5043892;28;20638;-69
2023/06/20 06:37:41;;;;;;;12.15;6.63;;;22.90;99.90;;;;;;5052299;28;20230;-75
2023/06/20 06:40:10;;;;;;;7.00;5.97;;;22.80;99.90;;;;;;5052683;28;20554;-69
2023/06/20 06:42:37;;;;;;;7.05;6.03;;;22.60;99.90;;;;;;5052128;28;20614;-78
2023/06/20 06:45:06;;;;;;;7.20;5.60;;;22.60;99.90;;;;;;5052787;28;20234;-77
2023/06/20 06:47:34;;;;;;;9.60;6.22;;;22.60;99.90;;;;;;5052534;28;20215;-76
2023/06/20 06:50:01;;;;;;;7.82;5.85;;;22.50;99.90;;;;;;5052829;28;20289;-79
2023/06/20 06:52:30;;;;;;;6.47;5.82;;;22.60;99.90;;;;;;5051950;28;20709;-77
2023/06/20 06:54:57;;;;;;;8.35;5.43;;;22.60;99.90;;;;;;5052490;28;20242;-76
2023/06/20 06:57:24;;;;;;;10.40;5.90;;;22.60;99.90;;;;;;5052449;28;20246;-69
2023/06/20 06:59:51;;;;;;;6.43;5.82;;;22.60;99.90;;;;;;5052514;28;20202;-69
2023/06/20 07:02:19;;;;;;;6.97;6.00;;;22.60;99.90;;;;;;5052440;28;20262;-68
2023/06/20 07:04:46;;;;;;;6.72;5.80;;;22.80;99.90;;;;;;5052156;28;20211;-69
2023/06/20 07:07:13;;;;;;;6.88;6.07;;;22.90;99.90;;;;;;5052102;28;20226;-78
2023/06/20 07:09:40;;;;;;;9.02;6.25;;;23.00;99.90;;;;;;5051887;28;20269;-70
2023/06/20 07:12:07;;;;;;;7.55;6.10;;;23.00;99.90;;;;;;5052030;28;20615;-79
2023/06/20 07:14:34;;;;;;;7.72;7.03;;;23.10;99.90;;;;;;5051528;28;20642;-79
2023/06/20 07:17:02;;;;;;;7.28;5.30;;;23.30;99.90;;;;;;5052187;28;20211;-68
2023/06/20 07:19:30;;;;;;;7.93;6.13;;;23.50;99.90;;;;;;5051651;28;20213;-68
2023/06/20 07:21:57;;;;;;;5.93;5.38;;;23.60;99.90;;;;;;5051777;28;20270;-68
2023/06/20 07:24:24;;;;;;;6.07;5.38;;;23.60;99.90;;;;;;5052251;28;20242;-68
2023/06/20 07:26:51;;;;;;;7.03;5.60;;;24.00;99.90;;;;;;5052383;28;20210;-68
2023/06/20 07:29:17;;;;;;;11.48;5.88;;;24.20;99.90;;;;;;5051586;28;20234;-79
2023/06/20 07:31:44;;;;;;;7.85;6.45;;;24.30;99.90;;;;;;5051585;28;20744;-69
2023/06/20 07:34:11;;;;;;;8.88;6.63;;;24.80;99.90;;;;;;5039207;28;20249;-68
2023/06/20 07:36:40;;;;;;;5.75;5.20;;;24.90;99.90;;;;;;5049934;28;20230;-68
2023/06/20 07:39:07;;;;;;;7.20;5.30;;;25.10;99.90;;;;;;5051730;28;20229;-69
2023/06/20 07:41:34;;;;;;;9.73;6.45;;;25.20;99.90;;;;;;5050738;28;20262;-76
2023/06/20 07:44:00;;;;;;;6.72;5.63;;;25.20;99.90;;;;;;5051861;28;20203;-69
2023/06/20 07:46:29;;;;;;;10.57;5.80;;;25.50;99.90;;;;;;5050884;28;20246;-69
2023/06/20 07:48:56;;;;;;;9.23;5.38;;;26.10;99.90;;;;;;5051544;28;20222;-71
2023/06/20 07:51:23;;;;;;;6.72;5.57;;;26.10;99.90;;;;;;5051702;28;20219;-68
2023/06/20 07:53:51;;;;;;;6.15;5.38;;;26.10;99.90;;;;;;5051623;28;20226;-69
2023/06/20 07:56:18;;;;;;;6.93;6.13;;;26.00;99.90;;;;;;5051158;28;20682;-69
2023/06/20 07:58:47;;;;;;;7.43;5.05;;;25.70;99.90;;;;;;5050867;28;20203;-68
2023/06/20 08:01:14;;;;;;;8.88;5.57;;;25.50;99.90;;;;;;5051270;28;20727;-75
2023/06/20 08:03:41;;;;;;;11.38;6.40;;;25.20;99.90;;;;;;5050856;28;20245;-80
2023/06/20 08:06:10;;;;;;;8.43;6.10;;;25.00;99.90;;;;;;5051075;28;20299;-76
2023/06/20 08:08:37;;;;;;;7.30;5.80;;;24.70;99.90;;;;;;5050765;28;20239;-75
2023/06/20 08:11:05;;;;;;;9.20;7.53;;;24.80;99.90;;;;;;5050865;28;20243;-75
2023/06/20 08:13:32;;;;;;;12.95;5.72;;;24.90;99.90;;;;;;5050503;28;20690;-69
2023/06/20 08:15:59;;;;;;;9.02;5.63;;;24.80;99.90;;;;;;5051058;28;20245;-77
2023/06/20 08:18:26;;;;;;;6.38;5.78;;;24.70;99.90;;;;;;5050652;28;20641;-69
2023/06/20 08:20:52;;;;;;;6.22;5.38;;;24.80;99.90;;;;;;5051240;28;20238;-80
2023/06/20 08:23:24;;;;;;;5.80;5.25;;;24.80;99.90;;;;;;5051169;28;20280;-79
2023/06/20 08:25:51;;;;;;;6.65;5.72;;;24.50;99.90;;;;;;5050816;28;20288;-73
2023/06/20 08:28:19;;;;;;;8.38;5.60;;;24.50;99.90;;;;;;5050841;28;20238;-77
2023/06/20 08:30:46;;;;;;;6.35;5.22;;;24.80;99.90;;;;;;5050365;28;20674;-68
2023/06/20 08:33:13;;;;;;;6.95;6.22;;;25.10;99.90;;;;;;5046153;28;20235;-71
2023/06/20 08:35:40;;;;;;;6.93;6.18;;;25.30;99.90;;;;;;5041065;28;20238;-69
2023/06/20 08:38:07;;;;;;;7.22;5.40;;;25.30;99.90;;;;;;5050565;28;20249;-69
2023/06/20 08:40:35;;;;;;;6.47;5.30;;;25.10;99.90;;;;;;5050086;28;20246;-71
2023/06/20 08:43:02;;;;;;;8.60;6.18;;;24.80;99.90;;;;;;5050501;28;20246;-68
2023/06/20 08:45:30;;;;;;;6.90;6.30;;;24.80;99.90;;;;;;5050196;28;20202;-68
2023/06/20 08:47:58;;;;;;;8.90;7.28;;;24.80;99.90;;;;;;5050472;28;20706;-68
2023/06/20 08:50:25;;;;;;;6.35;5.82;;;24.90;99.90;;;;;;5036334;28;20640;-69
2023/06/20 08:52:54;;;;;;;8.05;5.18;;;25.40;99.90;;;;;;5050801;28;20716;-77
2023/06/20 08:55:22;;;;;;;10.10;6.20;;;25.90;99.90;;;;;;5050347;28;20207;-70
2023/06/20 08:57:51;;;;;;;7.60;6.18;;;26.40;99.90;;;;;;5049547;28;20234;-78
2023/06/20 09:00:19;;;;;;;5.95;5.22;;;26.90;99.90;;;;;;5050074;28;20289;-77
2023/06/20 09:02:47;;;;;;;8.00;6.40;;;27.30;99.90;;;;;;5050025;28;20727;-76
2023/06/20 09:05:15;;;;;;;7.60;6.22;;;26.60;99.90;;;;;;5050263;28;20257;-70
2023/06/20 09:07:42;;;;;;;6.40;5.75;;;27.40;99.90;;;;;;5050061;28;20202;-80
2023/06/20 09:10:11;;;;;;;7.18;6.30;;;27.30;99.90;;;;;;5049902;28;20207;-77
2023/06/20 09:12:49;;;;;;;8.63;6.13;;;26.90;99.90;;;;;;5049840;28;20249;-70
2023/06/20 09:15:17;;;;;;;6.75;6.13;;;26.80;99.90;;;;;;5050019;28;20206;-70
2023/06/20 09:17:44;;;;;;;8.90;6.70;;;26.60;99.90;;;;;;5049905;28;20544;-76
2023/06/20 09:20:14;;;;;;;10.02;6.85;;;27.30;99.90;;;;;;5050312;28;20238;-68
2023/06/20 09:22:42;;;;;;;11.48;6.57;;;27.50;99.90;;;;;;5049551;28;20729;-78
2023/06/20 09:25:11;;;;;;;7.55;6.35;;;27.70;99.90;;;;;;5049892;28;20203;-77
2023/06/20 09:27:39;;;;;;;7.00;6.30;;;27.40;99.90;;;;;;5049779;28;20617;-69
2023/06/20 09:30:07;;;;;;;6.70;5.75;;;27.00;99.90;;;;;;5050468;28;20238;-72
2023/06/20 09:32:36;;;;;;;7.68;6.85;;;27.70;99.90;;;;;;5049820;28;20234;-77
2023/06/20 09:35:05;;;;;;;6.72;6.13;;;28.40;99.90;;;;;;5036052;28;20218;-77
2023/06/20 09:37:44;;;;;;;7.80;5.68;;;29.10;99.90;;;;;;5049385;28;20214;-69
2023/06/20 09:40:12;;;;;;;9.60;6.55;;;30.40;99.90;;;;;;5050018;28;20242;-76
2023/06/20 09:42:40;;;;;;;11.60;6.32;;;28.10;99.90;;;;;;5049640;28;20314;-75
2023/06/20 09:45:08;;;;;;;9.27;7.35;;;27.00;99.90;;;;;;5049723;28;20670;-69
2023/06/20 09:47:36;;;;;;;9.95;7.03;;;26.60;99.90;;;;;;5049514;28;20242;-73
2023/06/20 09:50:06;;;;;;;7.00;6.30;;;28.20;99.90;;;;;;5049515;28;20671;-80
2023/06/20 09:52:37;;;;;;;10.02;7.00;;;28.60;99.90;;;;;;5049258;28;20218;-76
2023/06/20 09:55:10;;;;;;;9.63;6.90;;;28.00;99.90;;;;;;5049699;28;20242;-72
2023/06/20 09:57:40;;;;;;;10.93;7.35;;;27.80;99.90;;;;;;5049520;28;20211;-69
2023/06/20 10:00:14;;;;;;;7.65;6.90;;;28.40;99.90;;;;;;5049760;28;20207;-71
2023/06/20 10:02:45;;;;;;;8.43;7.20;;;28.30;99.90;;;;;;5048754;28;20231;-69
2023/06/20 10:05:13;;;;;;;8.27;6.95;;;28.30;99.90;;;;;;5049468;28;20211;-69
2023/06/20 10:07:42;;;;;;;7.40;6.50;;;27.80;99.90;;;;;;5049162;28;20209;-73
2023/06/20 10:10:11;;;;;;;10.73;6.95;;;27.80;99.90;;;;;;5052997;28;20597;-72
2023/06/20 10:12:39;;;;;;;10.85;6.72;;;27.60;99.90;;;;;;5052820;28;20207;-71
2023/06/20 10:15:08;;;;;;;9.00;7.22;;;27.00;99.90;;;;;;5052887;28;20206;-67
2023/06/20 10:17:39;;;;;;;10.38;7.63;;;26.40;99.90;;;;;;5052352;28;20289;-67
2023/06/20 10:20:08;;;;;;;8.43;7.63;;;26.00;99.90;;;;;;5052978;28;20229;-76
2023/06/20 10:22:42;;;;;;;7.90;7.10;;;25.80;99.90;;;;;;5052180;28;20233;-69
2023/06/20 10:25:14;;;;;;;9.45;7.88;;;25.60;99.90;;;;;;5053077;28;20237;-75
2023/06/20 10:27:42;;;;;;;11.07;8.30;;;25.70;99.90;;;;;;5052727;28;20265;-69
2023/06/20 10:30:11;;;;;;;9.63;7.50;;;25.90;99.90;;;;;;5053275;28;20235;-68
2023/06/20 10:32:54;;;;;;;7.82;6.45;;;26.40;99.90;;;;;;5052569;28;20242;-70
2023/06/20 10:35:24;;;;;;;14.57;7.93;;;27.30;99.90;;;;;;5041086;28;20657;-75
2023/06/20 10:37:51;;;;;;;10.18;6.55;;;27.50;99.90;;;;;;5052557;28;20287;-80
2023/06/20 10:40:30;;;;;;;11.15;8.88;;;27.30;99.90;;;;;;5052508;28;20206;-71
2023/06/20 10:42:57;;;;;;;10.30;7.60;;;27.10;99.90;;;;;;5052112;28;20706;-77
2023/06/20 10:45:25;;;;;;;9.18;7.45;;;26.90;99.90;;;;;;5052862;28;20234;-71
2023/06/20 10:47:53;;;;;;;8.95;7.68;;;26.70;99.90;;;;;;5052828;28;20252;-77
2023/06/20 10:50:20;;;;;;;8.70;7.28;;;26.20;99.90;;;;;;5052516;28;20300;-80
2023/06/20 10:52:48;;;;;;;10.30;8.50;;;25.90;99.90;;;;;;5052174;28;20253;-81
2023/06/20 10:55:16;;;;;;;13.07;6.93;;;25.90;99.90;;;;;;5052527;28;20249;-69
2023/06/20 10:57:49;;;;;;;9.05;7.60;;;25.90;99.90;;;;;;5052417;28;20238;-80
2023/06/20 11:00:18;;;;;;;11.43;8.23;;;25.90;99.90;;;;;;5052472;28;20250;-74
2023/06/20 11:02:45;;;;;;;19.48;7.78;;;25.70;99.90;;;;;;5052067;28;20330;-80
2023/06/20 11:05:12;;;;;;;15.43;8.40;;;25.70;99.90;;;;;;5052089;28;20238;-74
2023/06/20 11:07:56;;;;;;;11.43;7.70;;;25.80;99.90;;;;;;5052136;28;20611;-69
2023/06/20 11:10:27;;;;;;;8.63;7.20;;;26.80;99.90;;;;;;5052553;28;20234;-70
2023/06/20 11:12:56;;;;;;;9.68;7.57;;;26.80;99.90;;;;;;5052336;28;20210;-69
2023/06/20 11:15:28;;;;;;;9.73;7.65;;;26.80;99.90;;;;;;5052396;28;20312;-79
2023/06/20 11:17:56;;;;;;;15.88;8.80;;;26.80;99.90;;;;;;5038561;28;20238;-68
2023/06/20 11:20:25;;;;;;;12.50;7.43;;;27.00;99.90;;;;;;5051371;28;20243;-82
2023/06/20 11:22:56;;;;;;;9.43;7.65;;;27.10;99.90;;;;;;5051852;28;20292;-69
2023/06/20 11:25:28;;;;;;;12.10;6.95;;;27.50;99.90;;;;;;5052130;28;20245;-79
2023/06/20 11:28:04;;;;;;;11.98;7.65;;;28.00;99.90;;;;;;5051834;28;20697;-69
2023/06/20 11:30:32;;;;;;;15.38;8.40;;;28.40;99.90;;;;;;5051712;28;20210;-69
2023/06/20 11:33:00;;;;;;;10.18;8.98;;;27.90;99.90;;;;;;5049236;28;20245;-70
2023/06/20 11:35:40;;;;;;;11.60;7.68;;;27.90;99.90;;;;;;5040225;28;20246;-72
2023/06/20 11:38:07;;;;;;;8.20;7.03;;;27.80;99.90;;;;;;5051659;28;20354;-68
2023/06/20 11:40:34;;;;;;;8.80;7.72;;;27.70;99.90;;;;;;5051300;28;20256;-69
2023/06/20 11:43:02;;;;;;;11.55;8.13;;;27.60;99.90;;;;;;5051546;28;20262;-69
2023/06/20 11:45:29;;;;;;;13.73;7.65;;;27.80;99.90;;;;;;5051531;28;20238;-81
2023/06/20 11:48:08;;;;;;;12.43;7.45;;;28.20;99.90;;;;;;5051672;28;20238;-69
2023/06/20 11:50:35;;;;;;;10.82;7.13;;;28.30;99.90;;;;;;5038808;28;20214;-69
2023/06/20 11:53:03;;;;;;;8.95;6.28;;;28.80;99.90;;;;;;5051493;28;20242;-72
2023/06/20 11:55:46;;;;;;;13.65;7.82;;;28.80;99.90;;;;;;5051205;28;20210;-87
2023/06/20 11:58:15;;;;;;;11.10;7.97;;;28.50;99.90;;;;;;5051432;28;20207;-69
2023/06/20 12:00:45;;;;;;;9.57;7.55;;;28.50;99.90;;;;;;5051005;28;20207;-68
2023/06/20 12:03:15;;;;;;;12.02;8.25;;;28.50;99.90;;;;;;5050968;28;20226;-69
2023/06/20 12:05:42;;;;;;;10.57;8.00;;;28.20;99.90;;;;;;5050782;28;20675;-73
2023/06/20 12:08:09;;;;;;;10.00;7.32;;;28.00;99.90;;;;;;5051453;28;20207;-70
2023/06/20 12:10:40;;;;;;;11.27;7.47;;;27.80;99.90;;;;;;5050649;28;20206;-76
2023/06/20 12:13:07;;;;;;;11.18;7.15;;;27.70;99.90;;;;;;5051072;28;20234;-72
2023/06/20 12:15:35;;;;;;;13.90;7.13;;;27.70;99.90;;;;;;5050518;28;20663;-76
2023/06/20 12:18:03;;;;;;;14.52;7.35;;;27.80;99.90;;;;;;5050889;28;20211;-75
2023/06/20 12:20:30;;;;;;;10.93;7.82;;;27.70;99.90;;;;;;5050600;28;20207;-76
2023/06/20 12:22:58;;;;;;;11.68;7.18;;;27.70;99.90;;;;;;5051135;28;20270;-72
2023/06/20 12:25:25;;;;;;;11.75;8.55;;;27.60;99.90;;;;;;5050640;28;20257;-72
2023/06/20 12:27:52;;;;;;;11.55;7.45;;;27.80;99.90;;;;;;5051240;28;20298;-69
2023/06/20 12:30:19;;;;;;;8.15;6.57;;;28.20;99.90;;;;;;5051059;28;20211;-76
2023/06/20 12:32:48;;;;;;;13.93;8.25;;;28.50;99.90;;;;;;5048629;28;20206;-68
2023/06/20 12:35:15;;;;;;;9.88;7.25;;;28.50;99.90;;;;;;5038042;28;20253;-70
2023/06/20 12:37:42;;;;;;;9.10;6.95;;;28.60;99.90;;;;;;5050405;28;20691;-69
2023/06/20 12:40:13;;;;;;;10.23;6.95;;;28.60;99.90;;;;;;5050545;28;20235;-77
2023/06/20 12:42:40;;;;;;;9.75;7.53;;;28.60;99.90;;;;;;5050276;28;20293;-79
2023/06/20 12:45:10;;;;;;;14.40;7.63;;;28.60;99.90;;;;;;5050347;28;20235;-68
2023/06/20 12:47:37;;;;;;;12.30;7.93;;;28.40;99.90;;;;;;5050257;28;20207;-77
2023/06/20 12:50:06;;;;;;;8.38;7.68;;;28.50;99.90;;;;;;5050425;28;20288;-70